Date,TemperatureHighF,TemperatureAvgF,TemperatureLowF,DewpointHighF,DewpointAvgF,DewpointLowF,HumidityHigh,HumidityAvg,HumidityLow,PressureMaxIn,PressureMinIn,WindSpeedMaxMPH,WindSpeedAvgMPH,GustSpeedMaxMPH,PrecipitationSumIn
2013-1-1,34.3,25.9,12.0,28.0,17.6,6.4,83,71,59,30.10,29.88,10,1,12,0.00
2013-1-2,30.4,20.2,8.8,20.7,11.7,2.7,78,70,51,30.28,30.07,10,1,13,0.00
2013-1-3,30.4,24.3,16.3,22.3,16.3,10.6,80,72,58,30.28,30.05,7,1,10,0.00
2013-1-4,37.8,32.0,24.4,23.7,20.3,16.9,79,62,45,30.07,29.94,10,1,15,0.02
2013-1-5,37.6,33.1,28.0,24.8,22.1,20.5,75,64,51,30.35,30.07,6,1,11,0.06
2013-1-6,40.1,35.4,30.6,31.1,26.1,21.6,87,69,57,30.17,29.95,7,1,12,0.11
2013-1-7,36.5,31.2,27.0,31.1,24.4,20.7,87,76,63,30.44,30.09,6,1,11,0.04
2013-1-8,43.5,31.8,23.2,26.8,22.2,18.3,83,69,42,30.40,30.30,7,0,10,0.01
2013-1-9,49.8,36.8,26.4,34.0,24.8,19.9,78,63,38,30.39,30.05,12,2,18,0.00
2013-1-10,43.2,38.2,29.5,28.4,26.2,24.6,82,62,52,30.62,30.34,12,1,19,0.00
2013-1-11,42.8,37.9,29.5,36.1,29.5,24.1,83,72,54,30.53,30.03,15,2,15,0.08
2013-1-12,52.5,45.8,40.5,45.9,41.2,36.1,91,84,76,30.12,30.06,7,1,11,0.00
2013-1-13,61.9,52.5,44.2,52.0,46.7,41.2,91,81,69,30.10,29.86,13,2,18,0.00
2013-1-14,53.6,42.2,32.4,48.6,32.3,19.8,87,68,50,30.42,29.81,9,1,13,0.01
2013-1-15,36.0,32.0,28.8,22.5,20.5,17.8,72,62,49,30.44,30.25,5,0,6,0.00
2013-1-16,35.2,31.5,28.4,29.7,26.7,20.5,90,82,63,30.25,29.85,6,0,9,0.05
2013-1-17,36.3,28.3,21.4,28.4,20.8,13.5,90,74,62,30.22,29.93,12,1,16,0.00
2013-1-18,30.0,22.7,14.9,15.6,9.5,2.8,81,59,36,30.48,30.18,9,1,15,0.01
2013-1-19,52.2,41.2,30.0,23.5,15.2,7.5,42,34,30,30.21,29.73,15,3,18,0.01
2013-1-20,48.0,35.9,22.8,32.4,17.8,8.1,70,48,36,30.12,29.56,14,3,20,0.00
2013-1-21,27.0,22.4,17.2,19.6,11.4,3.9,83,64,46,30.12,29.90,7,0,9,0.00
2013-1-22,17.8,11.8,7.0,10.0,-3.2,-9.6,71,51,33,30.25,29.93,13,2,15,0.01
2013-1-23,16.9,9.4,4.5,4.8,-2.2,-9.0,71,59,43,30.29,30.21,9,1,12,0.00
2013-1-24,17.4,9.6,1.8,8.4,0.1,-5.8,74,65,53,30.58,30.19,6,1,16,0.00
2013-1-25,19.6,14.7,10.6,11.3,5.9,1.2,82,68,51,30.54,30.13,6,0,7,0.00
2013-1-26,23.7,14.2,7.3,11.8,6.3,1.6,81,71,54,30.46,30.15,6,0,11,0.01
2013-1-27,29.8,19.7,8.6,17.1,11.3,2.1,82,70,53,30.62,30.46,6,0,9,0.03
2013-1-28,37.6,30.9,19.2,35.2,25.2,12.4,92,80,57,30.49,29.97,7,1,10,0.03
2013-1-29,48.9,41.8,35.2,46.8,39.6,33.4,94,92,83,30.12,29.90,7,1,10,0.23
2013-1-30,61.5,53.8,43.5,54.1,49.5,41.4,94,85,74,29.91,29.17,15,2,22,0.35
2013-1-31,54.5,36.3,25.7,51.6,24.1,8.1,92,62,39,29.76,29.04,22,3,22,0.72